sensor_id;sensor_type;location;lat;lon;timestamp;temperature;humidity
25668;DHT22;18003;-33.830;151.202;2023-07-24T00:00:07;13.00;99.90
25668;DHT22;18003;-33.830;151.202;2023-07-24T00:02:37;13.00;99.90
25668;DHT22;18003;-33.830;151.202;2023-07-24T00:05:07;13.00;99.90
25668;DHT22;18003;-33.830;151.202;2023-07-24T00:07:38;13.00;99.90
25668;DHT22;18003;-33.830;151.202;2023-07-24T00:10:09;12.90;99.90
25668;DHT22;18003;-33.830;151.202;2023-07-24T00:12:39;12.90;99.90
25668;DHT22;18003;-33.830;151.202;2023-07-24T00:15:09;12.90;99.90
25668;DHT22;18003;-33.830;151.202;2023-07-24T00:17:39;12.90;99.90
25668;DHT22;18003;-33.830;151.202;2023-07-24T00:20:09;13.00;99.90
25668;DHT22;18003;-33.830;151.202;2023-07-24T00:22:39;12.90;99.90
25668;DHT22;18003;-33.830;151.202;2023-07-24T00:25:09;13.00;99.90
25668;DHT22;18003;-33.830;151.202;2023-07-24T00:27:39;12.90;99.90
25668;DHT22;18003;-33.830;151.202;2023-07-24T00:30:10;13.00;99.90
25668;DHT22;18003;-33.830;151.202;2023-07-24T00:32:40;12.90;99.90
25668;DHT22;18003;-33.830;151.202;2023-07-24T00:35:10;13.00;99.90
25668;DHT22;18003;-33.830;151.202;2023-07-24T00:37:40;12.90;99.90
25668;DHT22;18003;-33.830;151.202;2023-07-24T00:40:10;12.90;99.90
25668;DHT22;18003;-33.830;151.202;2023-07-24T00:42:40;13.00;99.90
25668;DHT22;18003;-33.830;151.202;2023-07-24T00:45:10;12.90;99.90
25668;DHT22;18003;-33.830;151.202;2023-07-24T00:47:42;12.90;99.90
25668;DHT22;18003;-33.830;151.202;2023-07-24T00:50:12;12.90;99.90
25668;DHT22;18003;-33.830;151.202;2023-07-24T00:52:43;12.90;99.90
25668;DHT22;18003;-33.830;151.202;2023-07-24T00:55:14;12.90;99.90
25668;DHT22;18003;-33.830;151.202;2023-07-24T00:57:44;12.90;99.90
25668;DHT22;18003;-33.830;151.202;2023-07-24T01:00:15;13.10;99.90
25668;DHT22;18003;-33.830;151.202;2023-07-24T01:02:46;13.20;99.90
25668;DHT22;18003;-33.830;151.202;2023-07-24T01:05:15;13.30;99.90
25668;DHT22;18003;-33.830;151.202;2023-07-24T01:07:46;13.40;99.90
25668;DHT22;18003;-33.830;151.202;2023-07-24T01:10:16;13.40;99.90
25668;DHT22;18003;-33.830;151.202;2023-07-24T01:15:48;13.40;99.90
25668;DHT22;18003;-33.830;151.202;2023-07-24T01:18:15;13.40;99.90
25668;DHT22;18003;-33.830;151.202;2023-07-24T01:20:48;13.40;99.90
25668;DHT22;18003;-33.830;151.202;2023-07-24T01:26:06;13.40;99.90
25668;DHT22;18003;-33.830;151.202;2023-07-24T01:28:36;13.40;99.90
25668;DHT22;18003;-33.830;151.202;2023-07-24T01:31:07;13.50;99.90
25668;DHT22;18003;-33.830;151.202;2023-07-24T01:33:37;13.40;99.90
25668;DHT22;18003;-33.830;151.202;2023-07-24T01:36:08;13.40;99.90
25668;DHT22;18003;-33.830;151.202;2023-07-24T01:38:39;13.40;99.90
25668;DHT22;18003;-33.830;151.202;2023-07-24T01:41:10;13.50;99.90
25668;DHT22;18003;-33.830;151.202;2023-07-24T01:43:40;13.50;99.90
25668;DHT22;18003;-33.830;151.202;2023-07-24T01:46:10;13.50;99.90
25668;DHT22;18003;-33.830;151.202;2023-07-24T01:48:40;13.50;99.90
25668;DHT22;18003;-33.830;151.202;2023-07-24T01:51:10;13.60;99.90
25668;DHT22;18003;-33.830;151.202;2023-07-24T01:53:40;13.60;99.90
25668;DHT22;18003;-33.830;151.202;2023-07-24T01:56:10;13.50;99.90
25668;DHT22;18003;-33.830;151.202;2023-07-24T01:58:39;13.50;99.90
25668;DHT22;18003;-33.830;151.202;2023-07-24T02:01:09;13.50;99.90
25668;DHT22;18003;-33.830;151.202;2023-07-24T02:03:40;13.60;99.90
25668;DHT22;18003;-33.830;151.202;2023-07-24T02:06:10;13.90;99.90
25668;DHT22;18003;-33.830;151.202;2023-07-24T02:08:40;14.10;99.90
25668;DHT22;18003;-33.830;151.202;2023-07-24T02:11:11;14.30;99.90
25668;DHT22;18003;-33.830;151.202;2023-07-24T02:13:43;14.40;99.90
25668;DHT22;18003;-33.830;151.202;2023-07-24T02:16:13;14.50;99.90
25668;DHT22;18003;-33.830;151.202;2023-07-24T02:18:44;14.50;99.90
25668;DHT22;18003;-33.830;151.202;2023-07-24T02:21:14;14.60;99.90
25668;DHT22;18003;-33.830;151.202;2023-07-24T02:23:47;14.60;99.90
25668;DHT22;18003;-33.830;151.202;2023-07-24T02:26:17;14.50;99.90
25668;DHT22;18003;-33.830;151.202;2023-07-24T02:28:47;14.60;99.90
25668;DHT22;18003;-33.830;151.202;2023-07-24T02:31:17;14.50;99.90
25668;DHT22;18003;-33.830;151.202;2023-07-24T02:33:47;14.50;99.90
25668;DHT22;18003;-33.830;151.202;2023-07-24T02:36:20;14.50;99.90
25668;DHT22;18003;-33.830;151.202;2023-07-24T02:38:50;14.50;99.90
25668;DHT22;18003;-33.830;151.202;2023-07-24T02:41:20;14.50;99.90
25668;DHT22;18003;-33.830;151.202;2023-07-24T02:43:50;14.50;99.90
25668;DHT22;18003;-33.830;151.202;2023-07-24T02:46:20;14.40;99.90
25668;DHT22;18003;-33.830;151.202;2023-07-24T02:48:51;14.40;99.90
25668;DHT22;18003;-33.830;151.202;2023-07-24T02:51:22;14.50;99.90
25668;DHT22;18003;-33.830;151.202;2023-07-24T02:53:53;14.50;99.90
25668;DHT22;18003;-33.830;151.202;2023-07-24T02:56:23;14.50;99.90
25668;DHT22;18003;-33.830;151.202;2023-07-24T02:58:53;14.50;99.90
25668;DHT22;18003;-33.830;151.202;2023-07-24T03:01:23;14.50;99.90
25668;DHT22;18003;-33.830;151.202;2023-07-24T03:03:53;14.50;99.90
25668;DHT22;18003;-33.830;151.202;2023-07-24T03:06:23;14.50;99.90
25668;DHT22;18003;-33.830;151.202;2023-07-24T03:08:53;14.50;99.90
25668;DHT22;18003;-33.830;151.202;2023-07-24T03:11:23;14.40;99.90
25668;DHT22;18003;-33.830;151.202;2023-07-24T03:13:54;14.40;99.90
25668;DHT22;18003;-33.830;151.202;2023-07-24T03:16:24;14.50;99.90
25668;DHT22;18003;-33.830;151.202;2023-07-24T03:18:54;14.50;99.90
25668;DHT22;18003;-33.830;151.202;2023-07-24T03:21:24;14.50;99.90
25668;DHT22;18003;-33.830;151.202;2023-07-24T03:23:54;14.50;99.90
25668;DHT22;18003;-33.830;151.202;2023-07-24T03:26:24;14.40;99.90
25668;DHT22;18003;-33.830;151.202;2023-07-24T03:28:54;14.50;99.90
25668;DHT22;18003;-33.830;151.202;2023-07-24T03:31:24;14.40;99.90
25668;DHT22;18003;-33.830;151.202;2023-07-24T03:33:57;14.40;99.90
25668;DHT22;18003;-33.830;151.202;2023-07-24T03:36:27;14.40;99.90
25668;DHT22;18003;-33.830;151.202;2023-07-24T03:38:57;14.40;99.90
25668;DHT22;18003;-33.830;151.202;2023-07-24T03:41:27;14.40;99.90
25668;DHT22;18003;-33.830;151.202;2023-07-24T03:43:57;14.40;99.90
25668;DHT22;18003;-33.830;151.202;2023-07-24T03:46:27;14.50;99.90
25668;DHT22;18003;-33.830;151.202;2023-07-24T03:48:57;14.50;99.90
25668;DHT22;18003;-33.830;151.202;2023-07-24T03:51:27;14.40;99.90
25668;DHT22;18003;-33.830;151.202;2023-07-24T03:53:57;14.20;99.90
25668;DHT22;18003;-33.830;151.202;2023-07-24T03:56:27;14.10;99.90
25668;DHT22;18003;-33.830;151.202;2023-07-24T03:58:57;14.00;99.90
25668;DHT22;18003;-33.830;151.202;2023-07-24T04:01:27;14.00;99.90
25668;DHT22;18003;-33.830;151.202;2023-07-24T04:03:57;14.00;99.90
25668;DHT22;18003;-33.830;151.202;2023-07-24T04:06:27;13.90;99.90
25668;DHT22;18003;-33.830;151.202;2023-07-24T04:08:58;13.90;99.90
25668;DHT22;18003;-33.830;151.202;2023-07-24T04:11:28;13.80;99.90
25668;DHT22;18003;-33.830;151.202;2023-07-24T04:13:58;13.70;99.90
25668;DHT22;18003;-33.830;151.202;2023-07-24T04:16:28;13.70;99.90
25668;DHT22;18003;-33.830;151.202;2023-07-24T04:18:58;13.60;99.90
25668;DHT22;18003;-33.830;151.202;2023-07-24T04:21:28;13.60;99.90
25668;DHT22;18003;-33.830;151.202;2023-07-24T04:23:59;13.60;99.90
25668;DHT22;18003;-33.830;151.202;2023-07-24T04:26:29;13.60;99.90
25668;DHT22;18003;-33.830;151.202;2023-07-24T04:28:59;13.50;99.90
25668;DHT22;18003;-33.830;151.202;2023-07-24T04:31:29;13.60;99.90
25668;DHT22;18003;-33.830;151.202;2023-07-24T04:33:59;13.60;99.90
25668;DHT22;18003;-33.830;151.202;2023-07-24T04:36:29;13.60;99.90
25668;DHT22;18003;-33.830;151.202;2023-07-24T04:38:59;13.60;99.90
25668;DHT22;18003;-33.830;151.202;2023-07-24T04:41:29;13.50;99.90
25668;DHT22;18003;-33.830;151.202;2023-07-24T04:43:59;13.50;99.90
25668;DHT22;18003;-33.830;151.202;2023-07-24T04:46:29;13.60;99.90
25668;DHT22;18003;-33.830;151.202;2023-07-24T04:48:59;13.60;99.90
25668;DHT22;18003;-33.830;151.202;2023-07-24T04:51:29;13.60;99.90
25668;DHT22;18003;-33.830;151.202;2023-07-24T04:54:00;13.60;99.90
25668;DHT22;18003;-33.830;151.202;2023-07-24T04:56:30;13.70;99.90
25668;DHT22;18003;-33.830;151.202;2023-07-24T04:59:00;13.70;99.90
25668;DHT22;18003;-33.830;151.202;2023-07-24T05:01:30;13.60;99.90
25668;DHT22;18003;-33.830;151.202;2023-07-24T05:04:00;13.50;99.90
25668;DHT22;18003;-33.830;151.202;2023-07-24T05:06:30;13.60;99.90
25668;DHT22;18003;-33.830;151.202;2023-07-24T05:09:00;13.50;99.90
25668;DHT22;18003;-33.830;151.202;2023-07-24T05:11:31;13.50;99.90
25668;DHT22;18003;-33.830;151.202;2023-07-24T05:14:01;13.50;99.90
25668;DHT22;18003;-33.830;151.202;2023-07-24T05:16:31;13.50;99.90
25668;DHT22;18003;-33.830;151.202;2023-07-24T05:19:01;13.60;99.90
25668;DHT22;18003;-33.830;151.202;2023-07-24T05:21:31;13.80;99.90
25668;DHT22;18003;-33.830;151.202;2023-07-24T05:24:02;13.90;99.90
25668;DHT22;18003;-33.830;151.202;2023-07-24T05:26:32;14.00;99.90
25668;DHT22;18003;-33.830;151.202;2023-07-24T05:29:02;14.10;99.90
25668;DHT22;18003;-33.830;151.202;2023-07-24T05:31:33;14.10;99.90
25668;DHT22;18003;-33.830;151.202;2023-07-24T05:34:03;14.10;99.90
25668;DHT22;18003;-33.830;151.202;2023-07-24T05:36:33;14.20;99.90
25668;DHT22;18003;-33.830;151.202;2023-07-24T05:39:03;14.20;99.90
25668;DHT22;18003;-33.830;151.202;2023-07-24T05:41:33;14.20;99.90
25668;DHT22;18003;-33.830;151.202;2023-07-24T05:44:03;14.20;99.90
25668;DHT22;18003;-33.830;151.202;2023-07-24T05:46:33;14.30;99.90
25668;DHT22;18003;-33.830;151.202;2023-07-24T05:49:03;14.30;99.90
25668;DHT22;18003;-33.830;151.202;2023-07-24T05:51:33;14.30;99.90
25668;DHT22;18003;-33.830;151.202;2023-07-24T05:54:04;14.30;99.90
25668;DHT22;18003;-33.830;151.202;2023-07-24T05:56:34;14.30;99.90
25668;DHT22;18003;-33.830;151.202;2023-07-24T05:59:04;14.30;99.90
25668;DHT22;18003;-33.830;151.202;2023-07-24T06:01:34;14.40;99.90
25668;DHT22;18003;-33.830;151.202;2023-07-24T06:04:04;14.40;99.90
25668;DHT22;18003;-33.830;151.202;2023-07-24T06:06:35;14.30;99.90
25668;DHT22;18003;-33.830;151.202;2023-07-24T06:09:05;14.30;99.90
25668;DHT22;18003;-33.830;151.202;2023-07-24T06:11:35;14.30;99.90
25668;DHT22;18003;-33.830;151.202;2023-07-24T06:14:06;14.30;99.90
25668;DHT22;18003;-33.830;151.202;2023-07-24T06:16:36;14.40;99.90
25668;DHT22;18003;-33.830;151.202;2023-07-24T06:19:06;14.40;99.90
25668;DHT22;18003;-33.830;151.202;2023-07-24T06:21:36;14.40;99.90
25668;DHT22;18003;-33.830;151.202;2023-07-24T06:24:06;14.40;99.90
25668;DHT22;18003;-33.830;151.202;2023-07-24T06:26:42;14.40;99.90
25668;DHT22;18003;-33.830;151.202;2023-07-24T06:29:08;14.40;99.90
25668;DHT22;18003;-33.830;151.202;2023-07-24T06:31:38;14.40;99.90
25668;DHT22;18003;-33.830;151.202;2023-07-24T06:34:08;14.40;99.90
25668;DHT22;18003;-33.830;151.202;2023-07-24T06:36:38;14.40;99.90
25668;DHT22;18003;-33.830;151.202;2023-07-24T06:39:08;14.40;99.90
25668;DHT22;18003;-33.830;151.202;2023-07-24T06:41:38;14.40;99.90
25668;DHT22;18003;-33.830;151.202;2023-07-24T06:44:08;14.40;99.90
25668;DHT22;18003;-33.830;151.202;2023-07-24T06:46:38;14.40;99.90
25668;DHT22;18003;-33.830;151.202;2023-07-24T06:49:08;14.40;99.90
25668;DHT22;18003;-33.830;151.202;2023-07-24T06:51:39;14.40;99.90
25668;DHT22;18003;-33.830;151.202;2023-07-24T06:54:09;14.40;99.90
25668;DHT22;18003;-33.830;151.202;2023-07-24T06:56:39;14.50;99.90
25668;DHT22;18003;-33.830;151.202;2023-07-24T06:59:09;14.50;99.90
25668;DHT22;18003;-33.830;151.202;2023-07-24T07:01:39;14.50;99.90
25668;DHT22;18003;-33.830;151.202;2023-07-24T07:04:09;14.60;99.90
25668;DHT22;18003;-33.830;151.202;2023-07-24T07:06:39;14.60;99.90
25668;DHT22;18003;-33.830;151.202;2023-07-24T07:09:09;14.50;99.90
25668;DHT22;18003;-33.830;151.202;2023-07-24T07:11:40;14.60;99.90
25668;DHT22;18003;-33.830;151.202;2023-07-24T07:14:15;14.60;99.90
25668;DHT22;18003;-33.830;151.202;2023-07-24T07:16:42;14.60;99.90
25668;DHT22;18003;-33.830;151.202;2023-07-24T07:19:13;14.40;99.90
25668;DHT22;18003;-33.830;151.202;2023-07-24T07:21:43;14.20;99.90
25668;DHT22;18003;-33.830;151.202;2023-07-24T07:24:12;14.10;99.90
25668;DHT22;18003;-33.830;151.202;2023-07-24T07:26:43;14.10;99.90
25668;DHT22;18003;-33.830;151.202;2023-07-24T07:29:14;14.00;99.90
25668;DHT22;18003;-33.830;151.202;2023-07-24T07:31:44;14.00;99.90
25668;DHT22;18003;-33.830;151.202;2023-07-24T07:34:14;13.90;99.90
25668;DHT22;18003;-33.830;151.202;2023-07-24T07:36:44;13.90;99.90
25668;DHT22;18003;-33.830;151.202;2023-07-24T07:39:14;13.70;99.90
25668;DHT22;18003;-33.830;151.202;2023-07-24T07:41:44;13.50;99.90
25668;DHT22;18003;-33.830;151.202;2023-07-24T07:44:14;13.50;99.90
25668;DHT22;18003;-33.830;151.202;2023-07-24T07:46:44;13.40;99.90
25668;DHT22;18003;-33.830;151.202;2023-07-24T07:49:14;13.40;99.90
25668;DHT22;18003;-33.830;151.202;2023-07-24T07:51:44;13.30;99.90
25668;DHT22;18003;-33.830;151.202;2023-07-24T07:54:14;13.30;99.90
25668;DHT22;18003;-33.830;151.202;2023-07-24T07:56:44;13.30;99.90
25668;DHT22;18003;-33.830;151.202;2023-07-24T07:59:14;13.20;99.90
25668;DHT22;18003;-33.830;151.202;2023-07-24T08:01:45;13.30;99.90
25668;DHT22;18003;-33.830;151.202;2023-07-24T08:04:15;13.20;99.90
25668;DHT22;18003;-33.830;151.202;2023-07-24T08:06:46;13.20;99.90
25668;DHT22;18003;-33.830;151.202;2023-07-24T08:09:16;13.20;99.90
25668;DHT22;18003;-33.830;151.202;2023-07-24T08:11:46;13.10;99.90
25668;DHT22;18003;-33.830;151.202;2023-07-24T08:14:17;13.10;99.90
25668;DHT22;18003;-33.830;151.202;2023-07-24T08:16:48;13.00;99.90
25668;DHT22;18003;-33.830;151.202;2023-07-24T08:19:18;13.00;99.90
25668;DHT22;18003;-33.830;151.202;2023-07-24T08:21:48;13.00;99.90
25668;DHT22;18003;-33.830;151.202;2023-07-24T08:24:18;13.00;99.90
25668;DHT22;18003;-33.830;151.202;2023-07-24T08:26:48;12.90;99.90
25668;DHT22;18003;-33.830;151.202;2023-07-24T08:29:18;13.00;99.90
25668;DHT22;18003;-33.830;151.202;2023-07-24T08:31:47;12.90;99.90
25668;DHT22;18003;-33.830;151.202;2023-07-24T08:34:18;13.00;99.90
25668;DHT22;18003;-33.830;151.202;2023-07-24T08:36:48;13.10;99.90
25668;DHT22;18003;-33.830;151.202;2023-07-24T08:39:18;13.20;99.90
25668;DHT22;18003;-33.830;151.202;2023-07-24T08:41:47;13.20;99.90
25668;DHT22;18003;-33.830;151.202;2023-07-24T08:44:18;13.20;99.90
25668;DHT22;18003;-33.830;151.202;2023-07-24T08:46:48;13.20;99.90
25668;DHT22;18003;-33.830;151.202;2023-07-24T08:49:19;13.20;99.90
25668;DHT22;18003;-33.830;151.202;2023-07-24T08:51:50;13.20;99.90
25668;DHT22;18003;-33.830;151.202;2023-07-24T08:54:20;13.20;99.90
25668;DHT22;18003;-33.830;151.202;2023-07-24T08:56:51;13.30;99.90
25668;DHT22;18003;-33.830;151.202;2023-07-24T08:59:22;13.30;99.90
25668;DHT22;18003;-33.830;151.202;2023-07-24T09:01:52;13.30;99.90
25668;DHT22;18003;-33.830;151.202;2023-07-24T09:04:22;13.30;99.90
25668;DHT22;18003;-33.830;151.202;2023-07-24T09:06:52;13.30;99.90
25668;DHT22;18003;-33.830;151.202;2023-07-24T09:09:22;13.30;99.90
25668;DHT22;18003;-33.830;151.202;2023-07-24T09:11:53;13.30;99.90
25668;DHT22;18003;-33.830;151.202;2023-07-24T09:14:24;13.30;99.90
25668;DHT22;18003;-33.830;151.202;2023-07-24T09:17:07;13.20;99.90
25668;DHT22;18003;-33.830;151.202;2023-07-24T09:19:38;13.20;99.90
25668;DHT22;18003;-33.830;151.202;2023-07-24T09:22:10;13.20;99.90
25668;DHT22;18003;-33.830;151.202;2023-07-24T09:24:54;13.20;99.90
25668;DHT22;18003;-33.830;151.202;2023-07-24T09:27:27;13.20;99.90
25668;DHT22;18003;-33.830;151.202;2023-07-24T09:29:57;13.20;99.90
25668;DHT22;18003;-33.830;151.202;2023-07-24T09:32:28;13.20;99.90
25668;DHT22;18003;-33.830;151.202;2023-07-24T09:34:59;13.10;99.90
25668;DHT22;18003;-33.830;151.202;2023-07-24T09:37:33;13.20;99.90
25668;DHT22;18003;-33.830;151.202;2023-07-24T09:40:07;13.10;99.90
25668;DHT22;18003;-33.830;151.202;2023-07-24T09:42:38;13.20;99.90
25668;DHT22;18003;-33.830;151.202;2023-07-24T09:45:11;13.10;99.90
25668;DHT22;18003;-33.830;151.202;2023-07-24T09:47:42;13.20;99.90
25668;DHT22;18003;-33.830;151.202;2023-07-24T09:50:13;13.10;99.90
25668;DHT22;18003;-33.830;151.202;2023-07-24T09:52:44;13.00;99.90
25668;DHT22;18003;-33.830;151.202;2023-07-24T09:55:15;13.00;99.90
25668;DHT22;18003;-33.830;151.202;2023-07-24T09:57:44;13.00;99.90
25668;DHT22;18003;-33.830;151.202;2023-07-24T10:00:15;13.00;99.90
25668;DHT22;18003;-33.830;151.202;2023-07-24T10:02:45;13.00;99.90
25668;DHT22;18003;-33.830;151.202;2023-07-24T10:05:15;13.00;99.90
25668;DHT22;18003;-33.830;151.202;2023-07-24T10:07:45;13.00;99.90
25668;DHT22;18003;-33.830;151.202;2023-07-24T10:10:16;13.00;99.90
25668;DHT22;18003;-33.830;151.202;2023-07-24T10:12:46;12.90;99.90
25668;DHT22;18003;-33.830;151.202;2023-07-24T10:15:17;12.90;99.90
25668;DHT22;18003;-33.830;151.202;2023-07-24T10:17:47;12.90;99.90
25668;DHT22;18003;-33.830;151.202;2023-07-24T10:20:17;12.80;99.90
25668;DHT22;18003;-33.830;151.202;2023-07-24T10:22:47;12.80;99.90
25668;DHT22;18003;-33.830;151.202;2023-07-24T10:25:17;12.80;99.90
25668;DHT22;18003;-33.830;151.202;2023-07-24T10:27:47;12.80;99.90
25668;DHT22;18003;-33.830;151.202;2023-07-24T10:30:17;12.80;99.90
25668;DHT22;18003;-33.830;151.202;2023-07-24T10:32:48;12.80;99.90
25668;DHT22;18003;-33.830;151.202;2023-07-24T10:35:18;12.70;99.90
25668;DHT22;18003;-33.830;151.202;2023-07-24T10:37:58;12.80;99.90
25668;DHT22;18003;-33.830;151.202;2023-07-24T10:40:20;12.70;99.90
25668;DHT22;18003;-33.830;151.202;2023-07-24T10:43:06;12.70;99.90
25668;DHT22;18003;-33.830;151.202;2023-07-24T10:45:52;12.70;99.90
25668;DHT22;18003;-33.830;151.202;2023-07-24T10:48:23;12.70;99.90
25668;DHT22;18003;-33.830;151.202;2023-07-24T10:50:53;12.70;99.90
25668;DHT22;18003;-33.830;151.202;2023-07-24T10:53:24;12.70;99.90
25668;DHT22;18003;-33.830;151.202;2023-07-24T10:55:54;12.70;99.90
25668;DHT22;18003;-33.830;151.202;2023-07-24T10:58:25;12.60;99.90
25668;DHT22;18003;-33.830;151.202;2023-07-24T11:00:55;12.60;99.90
25668;DHT22;18003;-33.830;151.202;2023-07-24T11:03:25;12.60;99.90
25668;DHT22;18003;-33.830;151.202;2023-07-24T11:05:56;12.60;99.90
25668;DHT22;18003;-33.830;151.202;2023-07-24T11:08:26;12.60;99.90
25668;DHT22;18003;-33.830;151.202;2023-07-24T11:10:56;12.50;99.90
25668;DHT22;18003;-33.830;151.202;2023-07-24T11:13:27;12.50;99.90
25668;DHT22;18003;-33.830;151.202;2023-07-24T11:16:03;12.50;99.90
25668;DHT22;18003;-33.830;151.202;2023-07-24T11:18:28;12.50;99.90
25668;DHT22;18003;-33.830;151.202;2023-07-24T11:20:59;12.50;99.90
25668;DHT22;18003;-33.830;151.202;2023-07-24T11:23:29;12.50;99.90
25668;DHT22;18003;-33.830;151.202;2023-07-24T11:25:59;12.50;99.90
25668;DHT22;18003;-33.830;151.202;2023-07-24T11:28:29;12.50;99.90
25668;DHT22;18003;-33.830;151.202;2023-07-24T11:31:03;12.50;99.90
25668;DHT22;18003;-33.830;151.202;2023-07-24T11:33:33;12.50;99.90
25668;DHT22;18003;-33.830;151.202;2023-07-24T11:36:04;12.40;99.90
25668;DHT22;18003;-33.830;151.202;2023-07-24T11:38:34;12.50;99.90
25668;DHT22;18003;-33.830;151.202;2023-07-24T11:41:05;12.40;99.90
25668;DHT22;18003;-33.830;151.202;2023-07-24T11:43:35;12.40;99.90
25668;DHT22;18003;-33.830;151.202;2023-07-24T11:46:04;12.40;99.90
25668;DHT22;18003;-33.830;151.202;2023-07-24T11:48:40;12.30;99.90
25668;DHT22;18003;-33.830;151.202;2023-07-24T11:51:05;12.30;99.90
25668;DHT22;18003;-33.830;151.202;2023-07-24T11:53:34;12.30;99.90
25668;DHT22;18003;-33.830;151.202;2023-07-24T11:56:12;12.30;99.90
25668;DHT22;18003;-33.830;151.202;2023-07-24T11:58:34;12.30;99.90
25668;DHT22;18003;-33.830;151.202;2023-07-24T12:01:04;12.30;99.90
25668;DHT22;18003;-33.830;151.202;2023-07-24T12:03:34;12.30;99.90
25668;DHT22;18003;-33.830;151.202;2023-07-24T12:06:04;12.30;99.90
25668;DHT22;18003;-33.830;151.202;2023-07-24T12:08:35;12.30;99.90
25668;DHT22;18003;-33.830;151.202;2023-07-24T12:11:15;12.30;99.90
25668;DHT22;18003;-33.830;151.202;2023-07-24T12:13:37;12.20;99.90
25668;DHT22;18003;-33.830;151.202;2023-07-24T12:16:07;12.20;99.90
25668;DHT22;18003;-33.830;151.202;2023-07-24T12:18:37;12.20;99.90
25668;DHT22;18003;-33.830;151.202;2023-07-24T12:21:07;12.20;99.90
25668;DHT22;18003;-33.830;151.202;2023-07-24T12:23:37;12.20;99.90
25668;DHT22;18003;-33.830;151.202;2023-07-24T12:26:07;12.20;99.90
25668;DHT22;18003;-33.830;151.202;2023-07-24T12:28:37;12.20;99.90
25668;DHT22;18003;-33.830;151.202;2023-07-24T12:31:07;12.30;99.90
25668;DHT22;18003;-33.830;151.202;2023-07-24T12:33:36;12.50;99.90
25668;DHT22;18003;-33.830;151.202;2023-07-24T12:36:06;12.60;99.90
25668;DHT22;18003;-33.830;151.202;2023-07-24T12:38:36;12.60;99.90
25668;DHT22;18003;-33.830;151.202;2023-07-24T12:41:06;12.70;99.90
25668;DHT22;18003;-33.830;151.202;2023-07-24T12:43:36;12.80;99.90
25668;DHT22;18003;-33.830;151.202;2023-07-24T12:46:05;12.80;99.90
25668;DHT22;18003;-33.830;151.202;2023-07-24T12:48:35;12.90;99.90
25668;DHT22;18003;-33.830;151.202;2023-07-24T12:51:05;12.90;99.90
25668;DHT22;18003;-33.830;151.202;2023-07-24T12:53:35;12.90;99.90
25668;DHT22;18003;-33.830;151.202;2023-07-24T12:56:05;12.90;99.90
25668;DHT22;18003;-33.830;151.202;2023-07-24T12:58:35;13.00;99.90
25668;DHT22;18003;-33.830;151.202;2023-07-24T13:01:05;13.00;99.90
25668;DHT22;18003;-33.830;151.202;2023-07-24T13:03:34;13.00;99.90
25668;DHT22;18003;-33.830;151.202;2023-07-24T13:06:04;13.00;99.90
25668;DHT22;18003;-33.830;151.202;2023-07-24T13:08:34;13.10;99.90
25668;DHT22;18003;-33.830;151.202;2023-07-24T13:11:04;13.10;99.90
25668;DHT22;18003;-33.830;151.202;2023-07-24T13:13:33;13.10;99.90
25668;DHT22;18003;-33.830;151.202;2023-07-24T13:16:04;13.10;99.90
25668;DHT22;18003;-33.830;151.202;2023-07-24T13:18:34;13.10;99.90
25668;DHT22;18003;-33.830;151.202;2023-07-24T13:21:04;13.10;99.90
25668;DHT22;18003;-33.830;151.202;2023-07-24T13:23:35;13.10;99.90
25668;DHT22;18003;-33.830;151.202;2023-07-24T13:26:05;13.10;99.90
25668;DHT22;18003;-33.830;151.202;2023-07-24T13:28:36;13.10;99.90
25668;DHT22;18003;-33.830;151.202;2023-07-24T13:31:16;13.10;99.90
25668;DHT22;18003;-33.830;151.202;2023-07-24T13:33:46;13.10;99.90
25668;DHT22;18003;-33.830;151.202;2023-07-24T13:36:16;13.10;99.90
25668;DHT22;18003;-33.830;151.202;2023-07-24T13:38:46;13.10;99.90
25668;DHT22;18003;-33.830;151.202;2023-07-24T13:41:16;13.10;99.90
25668;DHT22;18003;-33.830;151.202;2023-07-24T13:43:47;13.10;99.90
25668;DHT22;18003;-33.830;151.202;2023-07-24T13:46:17;13.10;99.90
25668;DHT22;18003;-33.830;151.202;2023-07-24T13:48:46;13.10;99.90
25668;DHT22;18003;-33.830;151.202;2023-07-24T13:51:17;13.20;99.90
25668;DHT22;18003;-33.830;151.202;2023-07-24T13:53:47;13.10;99.90
25668;DHT22;18003;-33.830;151.202;2023-07-24T13:56:18;13.10;99.90
25668;DHT22;18003;-33.830;151.202;2023-07-24T13:58:50;13.10;99.90
25668;DHT22;18003;-33.830;151.202;2023-07-24T14:01:20;13.10;99.90
25668;DHT22;18003;-33.830;151.202;2023-07-24T14:03:50;13.10;99.90
25668;DHT22;18003;-33.830;151.202;2023-07-24T14:06:20;13.10;99.90
25668;DHT22;18003;-33.830;151.202;2023-07-24T14:08:50;13.10;99.90
25668;DHT22;18003;-33.830;151.202;2023-07-24T14:11:20;13.10;99.90
25668;DHT22;18003;-33.830;151.202;2023-07-24T14:13:51;13.10;99.90
25668;DHT22;18003;-33.830;151.202;2023-07-24T14:16:21;13.10;99.90
25668;DHT22;18003;-33.830;151.202;2023-07-24T14:18:51;13.10;99.90
25668;DHT22;18003;-33.830;151.202;2023-07-24T14:21:21;13.10;99.90
25668;DHT22;18003;-33.830;151.202;2023-07-24T14:23:51;13.10;99.90
25668;DHT22;18003;-33.830;151.202;2023-07-24T14:26:22;13.10;99.90
25668;DHT22;18003;-33.830;151.202;2023-07-24T14:28:52;13.10;99.90
25668;DHT22;18003;-33.830;151.202;2023-07-24T14:31:22;13.10;99.90
25668;DHT22;18003;-33.830;151.202;2023-07-24T14:33:52;13.10;99.90
25668;DHT22;18003;-33.830;151.202;2023-07-24T14:36:22;13.10;99.90
25668;DHT22;18003;-33.830;151.202;2023-07-24T14:38:52;13.10;99.90
25668;DHT22;18003;-33.830;151.202;2023-07-24T14:41:22;13.10;99.90
25668;DHT22;18003;-33.830;151.202;2023-07-24T14:43:53;13.10;99.90
25668;DHT22;18003;-33.830;151.202;2023-07-24T14:46:23;13.10;99.90
25668;DHT22;18003;-33.830;151.202;2023-07-24T14:48:53;13.10;99.90
25668;DHT22;18003;-33.830;151.202;2023-07-24T14:51:24;13.10;99.90
25668;DHT22;18003;-33.830;151.202;2023-07-24T14:53:54;13.10;99.90
25668;DHT22;18003;-33.830;151.202;2023-07-24T14:56:24;13.10;99.90
25668;DHT22;18003;-33.830;151.202;2023-07-24T14:58:54;13.00;99.90
25668;DHT22;18003;-33.830;151.202;2023-07-24T15:01:24;13.00;99.90
25668;DHT22;18003;-33.830;151.202;2023-07-24T15:03:56;13.00;99.90
25668;DHT22;18003;-33.830;151.202;2023-07-24T15:06:26;13.00;99.90
25668;DHT22;18003;-33.830;151.202;2023-07-24T15:08:56;13.00;99.90
25668;DHT22;18003;-33.830;151.202;2023-07-24T15:11:26;13.10;99.90